Time;durP1;ratioP1;P1;durP2;ratioP2;P2;SDS_P1;SDS_P2;PMS_P1;PMS_P2;Temp;Humidity;BMP_temperature;BMP_pressure;BME280_temperature;BME280_humidity;BME280_pressure;Samples;Min_cycle;Max_cycle;Signal;HPM_P1;HPM_P2
2022/07/19 00:00:30;;;;;;;9.93;4.63;;;;;;;24.09;46.07;100830.69;4114601;28;20130;-70
2022/07/19 00:02:33;;;;;;;10.88;4.22;;;;;;;24.11;45.92;100838.59;4130012;28;20396;-69
2022/07/19 00:04:36;;;;;;;9.43;4.70;;;;;;;24.10;45.66;100829.75;4146981;28;20042;-69
2022/07/19 00:06:40;;;;;;;8.23;3.95;;;;;;;24.14;45.16;100830.53;4130593;28;20496;-70
2022/07/19 00:08:43;;;;;;;;;;;;;;;23.93;45.42;100830.34;4132336;28;20524;-69
2022/07/19 00:10:46;;;;;;;11.50;4.00;;;;;;;23.98;45.56;100830.22;4130636;28;19922;-69
2022/07/19 00:12:56;;;;;;;11.82;4.30;;;;;;;23.95;45.94;100833.00;4130913;28;20042;-70
2022/07/19 00:14:59;;;;;;;8.27;3.47;;;;;;;23.91;45.69;100829.56;4130669;28;20046;-69
2022/07/19 00:17:01;;;;;;;10.85;3.63;;;;;;;23.91;45.13;100834.00;4131745;28;20506;-69
2022/07/19 00:19:04;;;;;;;9.80;4.25;;;;;;;23.90;45.85;100829.63;4130434;28;20137;-69
2022/07/19 00:21:07;;;;;;;9.30;4.43;;;;;;;23.92;45.68;100826.00;4131840;28;20563;-69
2022/07/19 00:23:11;;;;;;;11.57;4.50;;;;;;;23.90;45.90;100838.44;4130906;28;20516;-70
2022/07/19 00:25:14;;;;;;;;;;;;;;;23.70;46.79;100839.97;4130738;28;20077;-69
2022/07/19 00:27:17;;;;;;;9.90;4.30;;;;;;;23.75;46.67;100837.16;4131932;28;19928;-69
2022/07/19 00:29:20;;;;;;;11.85;3.95;;;;;;;23.78;46.39;100834.41;4131605;28;20523;-69
2022/07/19 00:31:24;;;;;;;11.00;4.75;;;;;;;23.76;46.52;100838.00;4131526;28;20038;-69
2022/07/19 00:33:27;;;;;;;7.57;3.72;;;;;;;23.74;46.30;100835.41;4129290;28;20567;-69
2022/07/19 00:35:30;;;;;;;10.50;4.90;;;;;;;23.77;46.77;100839.75;4131710;28;20495;-69
2022/07/19 00:37:32;;;;;;;13.82;4.10;;;;;;;23.78;46.52;100841.50;4130360;28;20129;-69
2022/07/19 00:39:37;;;;;;;10.43;3.88;;;;;;;23.79;46.62;100840.59;4130261;28;20046;-70
2022/07/19 00:41:42;;;;;;;7.28;3.42;;;;;;;23.74;47.32;100837.22;4130822;28;20050;-70
2022/07/19 00:43:45;;;;;;;12.65;4.07;;;;;;;23.69;47.76;100837.38;4130110;28;20125;-69
2022/07/19 00:45:48;;;;;;;8.13;4.00;;;;;;;23.69;47.53;100846.19;4130246;28;20039;-69
2022/07/19 00:47:51;;;;;;;12.50;3.70;;;;;;;23.65;46.71;100841.06;4130214;28;20077;-69
2022/07/19 00:49:54;;;;;;;9.98;3.97;;;;;;;23.60;47.24;100843.88;4131529;28;20089;-69
2022/07/19 00:52:00;;;;;;;12.48;4.40;;;;;;;23.59;47.92;100850.09;4129458;28;20046;-69
2022/07/19 00:54:04;;;;;;;12.30;3.88;;;;;;;23.49;48.89;100846.88;4131572;28;20109;-69
2022/07/19 00:56:10;;;;;;;;;;;;;;;23.29;48.71;100844.91;4131889;28;20038;-69
2022/07/19 00:58:14;;;;;;;8.75;3.55;;;;;;;23.38;47.78;100842.84;4130199;28;19921;-69
2022/07/19 01:00:18;;;;;;;8.43;4.50;;;;;;;23.40;47.85;100838.38;4131418;28;20435;-69
2022/07/19 01:02:21;;;;;;;;;;;;;;;23.28;48.02;100845.81;4131084;28;20049;-69
2022/07/19 01:04:24;;;;;;;10.50;3.95;;;;;;;23.32;47.81;100839.50;4131341;28;20036;-69
2022/07/19 01:06:28;;;;;;;12.57;4.05;;;;;;;23.41;47.33;100848.03;4131302;28;20385;-69
2022/07/19 01:08:31;;;;;;;7.90;3.78;;;;;;;23.46;46.10;100843.47;4131265;28;20596;-69
2022/07/19 01:10:34;;;;;;;8.98;3.35;;;;;;;23.44;44.76;100854.13;4131358;28;20496;-69
2022/07/19 01:12:40;;;;;;;8.90;3.30;;;;;;;23.37;44.86;100843.78;4129386;28;20046;-69
2022/07/19 01:14:43;;;;;;;11.13;4.10;;;;;;;23.40;45.01;100841.03;4131198;28;20117;-70
2022/07/19 01:16:46;;;;;;;9.27;3.33;;;;;;;23.44;44.42;100840.00;4131294;28;20108;-70
2022/07/19 01:18:50;;;;;;;6.83;3.27;;;;;;;23.45;44.32;100839.06;4131314;28;20385;-69
2022/07/19 01:20:53;;;;;;;10.93;3.92;;;;;;;23.49;43.78;100838.06;4131229;28;20325;-70
2022/07/19 01:22:58;;;;;;;10.63;3.67;;;;;;;23.54;43.25;100833.47;4129159;28;20118;-69
2022/07/19 01:25:00;;;;;;;;;;;;;;;23.37;43.55;100831.38;4131673;28;20129;-69
2022/07/19 01:27:05;;;;;;;6.22;3.33;;;;;;;23.41;44.03;100832.13;4129832;28;19921;-69
2022/07/19 01:29:08;;;;;;;6.82;3.13;;;;;;;23.39;44.97;100832.16;4131410;28;20034;-69
2022/07/19 01:31:11;;;;;;;5.65;3.17;;;;;;;23.34;45.78;100828.81;4131177;28;20047;-70
2022/07/19 01:33:15;;;;;;;10.57;3.63;;;;;;;23.34;44.84;100828.81;4129263;28;20070;-69
2022/07/19 01:35:18;;;;;;;14.77;3.78;;;;;;;23.32;44.46;100826.22;4131118;28;20403;-69
2022/07/19 01:37:21;;;;;;;10.90;3.27;;;;;;;23.24;44.57;100828.25;4129848;28;20042;-69
2022/07/19 01:39:25;;;;;;;9.23;3.85;;;;;;;23.20;44.82;100834.56;4129895;28;20085;-69
2022/07/19 01:41:28;;;;;;;5.13;3.30;;;;;;;23.10;45.13;100835.75;4129853;28;20133;-69
2022/07/19 01:43:31;;;;;;;7.68;3.30;;;;;;;23.08;44.41;100837.59;4130360;28;20141;-69
2022/07/19 01:45:37;;;;;;;12.32;4.13;;;;;;;23.05;44.43;100837.69;4130710;28;20547;-69
2022/07/19 01:47:41;;;;;;;8.90;3.72;;;;;;;23.00;44.47;100836.03;4133901;28;20038;-71
2022/07/19 01:49:44;;;;;;;6.90;3.10;;;;;;;22.93;44.56;100836.28;4132756;28;20081;-70
2022/07/19 01:51:46;;;;;;;11.73;4.13;;;;;;;22.88;44.34;100833.78;4131929;28;20142;-69
2022/07/19 01:53:49;;;;;;;5.57;3.00;;;;;;;22.86;44.36;100838.25;4133693;28;20134;-69
2022/07/19 01:55:53;;;;;;;9.55;4.20;;;;;;;22.90;44.38;100836.41;4133878;28;20038;-69
2022/07/19 01:57:56;;;;;;;8.07;3.53;;;;;;;22.84;44.50;100833.00;4132603;28;20081;-69
2022/07/19 01:59:59;;;;;;;8.57;3.42;;;;;;;22.86;44.46;100834.75;4132597;28;20038;-69
2022/07/19 02:02:02;;;;;;;8.30;3.55;;;;;;;22.84;44.54;100829.50;4131752;28;20097;-69
2022/07/19 02:04:06;;;;;;;10.60;2.97;;;;;;;22.80;45.13;100834.00;4133431;28;20712;-69
2022/07/19 02:06:09;;;;;;;7.60;4.13;;;;;;;22.70;45.34;100829.91;4133569;28;20057;-69
2022/07/19 02:08:13;;;;;;;6.95;3.38;;;;;;;22.63;45.43;100834.53;4133580;28;20038;-70
2022/07/19 02:10:16;;;;;;;7.73;3.77;;;;;;;22.60;45.36;100826.66;4133610;28;20058;-70
2022/07/19 02:12:21;;;;;;;6.70;3.20;;;;;;;22.56;45.57;100833.00;4132833;28;20293;-70
2022/07/19 02:14:23;;;;;;;10.02;3.78;;;;;;;22.48;45.54;100830.53;4133416;28;20386;-69
2022/07/19 02:16:26;;;;;;;8.48;4.05;;;;;;;22.48;45.65;100830.53;4132200;28;20045;-70
2022/07/19 02:18:29;;;;;;;7.88;3.33;;;;;;;22.47;45.69;100823.53;4116025;28;20109;-69
2022/07/19 02:20:32;;;;;;;8.60;3.63;;;;;;;22.45;45.64;100827.13;4133428;28;20130;-70
2022/07/19 02:22:35;;;;;;;8.23;3.53;;;;;;;22.38;45.90;100828.22;4115280;28;20047;-69
2022/07/19 02:24:42;;;;;;;8.77;3.50;;;;;;;22.35;46.26;100834.47;4133298;28;20038;-69
2022/07/19 02:26:45;;;;;;;8.35;3.70;;;;;;;22.29;46.67;100822.22;4133674;28;20042;-69
2022/07/19 02:28:49;;;;;;;8.38;3.65;;;;;;;22.34;46.40;100815.97;4132065;28;20048;-69
2022/07/19 02:30:52;;;;;;;12.05;4.25;;;;;;;22.29;46.74;100824.88;4132014;28;20050;-69
2022/07/19 02:32:55;;;;;;;7.97;3.80;;;;;;;22.24;47.23;100826.81;4132427;28;20546;-69
2022/07/19 02:35:01;;;;;;;8.60;3.78;;;;;;;22.13;48.01;100823.59;4133209;28;20496;-69
2022/07/19 02:37:04;;;;;;;11.93;4.03;;;;;;;22.14;48.45;100827.97;4133200;28;20069;-69
2022/07/19 02:39:07;;;;;;;7.95;4.00;;;;;;;22.13;48.93;100831.53;4133139;28;20046;-69
2022/07/19 02:41:10;;;;;;;10.00;4.05;;;;;;;22.08;48.87;100829.00;4131944;28;20138;-69
2022/07/19 02:43:13;;;;;;;10.60;3.70;;;;;;;22.04;48.79;100830.00;4131012;28;20046;-69
2022/07/19 02:45:17;;;;;;;11.50;4.60;;;;;;;22.05;48.90;100837.03;4133065;28;20082;-69
2022/07/19 02:47:20;;;;;;;9.85;4.47;;;;;;;22.02;49.05;100836.25;4132956;28;20042;-69
2022/07/19 02:49:23;;;;;;;9.40;4.57;;;;;;;21.97;49.14;100829.28;4133050;28;20046;-69
2022/07/19 02:51:26;;;;;;;9.73;4.18;;;;;;;21.88;49.49;100821.59;4132869;28;20042;-69
2022/07/19 02:53:29;;;;;;;8.15;4.55;;;;;;;21.86;49.39;100826.09;4132129;28;20050;-70
2022/07/19 02:55:32;;;;;;;8.95;4.63;;;;;;;21.83;49.42;100820.88;4132954;28;20066;-70
2022/07/19 02:57:35;;;;;;;11.80;4.73;;;;;;;21.71;49.43;100827.38;4132645;28;20136;-69
2022/07/19 02:59:38;;;;;;;7.63;3.83;;;;;;;21.68;49.57;100819.50;4132803;28;20293;-69
2022/07/19 03:01:42;;;;;;;10.63;3.88;;;;;;;21.67;49.59;100824.81;4132107;28;20120;-69
2022/07/19 03:03:47;;;;;;;;;;;;;;;21.44;50.33;100824.47;4133019;28;20042;-69
2022/07/19 03:05:50;;;;;;;10.45;4.03;;;;;;;21.51;50.16;100825.22;4132674;28;19929;-69
2022/07/19 03:07:53;;;;;;;10.38;4.53;;;;;;;21.56;49.97;100822.47;4132663;28;20046;-69
2022/07/19 03:09:56;;;;;;;10.38;4.20;;;;;;;21.61;49.89;100825.84;4132654;28;20449;-69
2022/07/19 03:11:59;;;;;;;10.57;4.15;;;;;;;21.65;49.89;100822.22;4131883;28;20042;-69
2022/07/19 03:14:01;;;;;;;10.38;4.55;;;;;;;21.68;49.72;100822.13;4132473;28;20137;-69
2022/07/19 03:16:05;;;;;;;8.45;4.10;;;;;;;21.72;49.69;100812.34;4132582;28;20496;-69
2022/07/19 03:18:10;;;;;;;6.82;4.13;;;;;;;21.76;49.53;100811.38;4132597;28;20042;-69
2022/07/19 03:20:12;;;;;;;10.23;4.10;;;;;;;21.74;49.82;100815.81;4132462;28;20045;-69
2022/07/19 03:22:15;;;;;;;10.75;4.25;;;;;;;21.75;49.96;100817.56;4131744;28;20386;-69
2022/07/19 03:24:18;;;;;;;8.70;3.60;;;;;;;21.72;50.11;100821.16;4132513;28;20050;-69
2022/07/19 03:26:21;;;;;;;14.32;4.38;;;;;;;21.68;50.28;100813.34;4132430;28;20080;-69
2022/07/19 03:28:24;;;;;;;7.65;3.70;;;;;;;21.65;50.75;100818.72;4132285;28;20038;-69
2022/07/19 03:30:27;;;;;;;10.45;4.28;;;;;;;21.60;50.71;100817.06;4132524;28;20049;-69
2022/07/19 03:32:30;;;;;;;7.68;3.72;;;;;;;21.53;50.64;100812.81;4131585;28;20039;-69
2022/07/19 03:34:34;;;;;;;7.30;3.90;;;;;;;21.44;50.70;100820.97;4132206;28;20492;-69
2022/07/19 03:36:37;;;;;;;11.93;4.45;;;;;;;21.42;50.72;100818.38;4114971;28;20133;-69
2022/07/19 03:38:40;;;;;;;7.50;3.83;;;;;;;21.42;50.65;100814.84;4132264;28;20568;-69
2022/07/19 03:40:43;;;;;;;11.07;3.72;;;;;;;21.45;50.49;100825.38;4132209;28;20048;-69
2022/07/19 03:42:46;;;;;;;10.48;4.28;;;;;;;21.43;50.18;100811.28;4131372;28;20042;-69
2022/07/19 03:44:49;;;;;;;8.10;4.32;;;;;;;21.46;50.32;100821.78;4114797;28;20053;-69
2022/07/19 03:46:52;;;;;;;11.90;3.70;;;;;;;21.42;50.33;100814.84;4130879;28;20046;-69
2022/07/19 03:48:55;;;;;;;11.00;3.63;;;;;;;21.43;50.25;100821.88;4131981;28;20038;-69
2022/07/19 03:50:59;;;;;;;7.82;4.05;;;;;;;21.42;50.25;100830.69;4114741;28;20042;-69
2022/07/19 03:53:02;;;;;;;10.60;4.03;;;;;;;21.41;50.08;100826.34;4131268;28;20500;-69
2022/07/19 03:55:06;;;;;;;10.77;4.43;;;;;;;21.42;50.03;100841.28;4132044;28;20492;-69
2022/07/19 03:57:08;;;;;;;9.57;4.28;;;;;;;21.40;50.67;100833.38;4131953;28;20048;-69
2022/07/19 03:59:11;;;;;;;9.68;3.85;;;;;;;21.38;51.06;100829.06;4130647;28;20042;-69
2022/07/19 04:01:15;;;;;;;9.73;4.30;;;;;;;21.39;51.13;100836.06;4131900;28;20050;-69
2022/07/19 04:03:25;;;;;;;8.95;4.40;;;;;;;21.36;51.22;100837.03;4131090;28;20137;-69
2022/07/19 04:05:28;;;;;;;11.63;4.38;;;;;;;21.36;51.67;100831.75;4130615;28;20042;-69
2022/07/19 04:07:32;;;;;;;11.75;4.60;;;;;;;21.37;51.72;100832.59;4130556;28;20042;-69
2022/07/19 04:09:35;;;;;;;11.70;4.78;;;;;;;21.31;52.07;100827.47;4131352;28;20038;-69
2022/07/19 04:11:38;;;;;;;10.50;3.97;;;;;;;21.35;52.21;100837.03;4131146;28;20129;-69
2022/07/19 04:13:41;;;;;;;9.43;4.35;;;;;;;21.35;52.65;100842.34;4131542;28;20042;-70
2022/07/19 04:15:44;;;;;;;9.13;3.67;;;;;;;21.39;52.56;100831.69;4131825;28;20053;-70
2022/07/19 04:17:48;;;;;;;11.57;4.43;;;;;;;21.38;52.91;100839.66;4131708;28;20042;-69
2022/07/19 04:19:51;;;;;;;8.13;3.60;;;;;;;21.31;53.26;100843.34;4131768;28;20488;-69
2022/07/19 04:21:54;;;;;;;8.02;3.83;;;;;;;21.30;52.96;100839.81;4131414;28;20056;-69
2022/07/19 04:23:59;;;;;;;13.73;4.35;;;;;;;21.34;53.20;100846.78;4131593;28;20134;-69
2022/07/19 04:26:02;;;;;;;14.85;4.50;;;;;;;21.30;53.46;100846.88;4131668;28;20069;-69
2022/07/19 04:28:07;;;;;;;10.05;4.20;;;;;;;21.19;53.87;100845.38;4131551;28;20451;-69
2022/07/19 04:30:10;;;;;;;9.73;4.05;;;;;;;21.23;53.52;100844.41;4130411;28;20049;-69
2022/07/19 04:32:14;;;;;;;6.47;3.63;;;;;;;21.23;53.73;100840.88;4130920;28;20448;-69
2022/07/19 04:34:22;;;;;;;8.95;3.78;;;;;;;21.27;53.83;100842.53;4131613;28;20377;-69
2022/07/19 04:36:25;;;;;;;10.40;4.07;;;;;;;21.28;53.71;100846.94;4131599;28;20050;-69
2022/07/19 04:38:28;;;;;;;7.68;3.95;;;;;;;21.29;53.92;100840.75;4131604;28;20058;-69
2022/07/19 04:40:32;;;;;;;9.25;4.25;;;;;;;21.31;53.56;100846.84;4130354;28;20042;-69
2022/07/19 04:42:35;;;;;;;9.00;4.38;;;;;;;21.31;53.26;100844.19;4129635;28;20527;-70
2022/07/19 04:44:38;;;;;;;13.40;4.07;;;;;;;21.32;53.42;100845.94;4131367;28;20137;-70
2022/07/19 04:46:41;;;;;;;10.05;4.40;;;;;;;21.27;53.48;100854.00;4130163;28;20066;-69
2022/07/19 04:48:49;;;;;;;8.57;3.97;;;;;;;21.28;53.59;100853.06;4131406;28;20089;-70
2022/07/19 04:50:52;;;;;;;8.25;4.15;;;;;;;21.36;53.28;100852.03;4131456;28;20042;-70
2022/07/19 04:52:55;;;;;;;9.45;4.10;;;;;;;21.41;53.14;100847.50;4129390;28;20046;-69
2022/07/19 04:54:58;;;;;;;10.43;4.10;;;;;;;21.47;52.89;100850.00;4131446;28;20043;-69
2022/07/19 04:57:02;;;;;;;10.05;4.78;;;;;;;21.48;52.95;100846.44;4130173;28;20046;-70
2022/07/19 04:59:05;;;;;;;9.77;4.10;;;;;;;21.51;52.51;100849.03;4131507;28;20038;-69
2022/07/19 05:01:08;;;;;;;15.45;5.22;;;;;;;21.56;51.96;100838.34;4131362;28;20045;-69
2022/07/19 05:03:10;;;;;;;11.57;4.22;;;;;;;21.59;51.60;100838.25;4129241;28;20527;-69
2022/07/19 05:05:14;;;;;;;12.95;6.00;;;;;;;21.63;51.03;100842.56;4131328;28;20420;-69
2022/07/19 05:07:16;;;;;;;16.73;4.82;;;;;;;21.64;51.81;100836.38;4130074;28;20042;-70
2022/07/19 05:09:20;;;;;;;11.60;4.78;;;;;;;21.70;51.60;100835.31;4131221;28;20129;-70
2022/07/19 05:11:23;;;;;;;13.00;4.88;;;;;;;21.75;51.68;100844.03;4131284;28;20045;-69
2022/07/19 05:13:27;;;;;;;10.10;4.30;;;;;;;21.74;52.03;100843.16;4130346;28;20062;-69
2022/07/19 05:15:30;;;;;;;;;;;;;;;21.62;52.47;100838.19;4130557;28;20515;-68
2022/07/19 05:17:33;;;;;;;12.10;5.07;;;;;;;21.69;51.54;100838.91;4130032;28;19922;-69
2022/07/19 05:19:36;;;;;;;11.50;4.55;;;;;;;21.77;51.48;100836.91;4130693;28;20133;-69
2022/07/19 05:21:39;;;;;;;12.25;5.03;;;;;;;21.84;51.45;100838.47;4133719;28;20062;-69
2022/07/19 05:23:42;;;;;;;15.90;5.25;;;;;;;21.94;51.36;100831.16;4134177;28;20042;-69
2022/07/19 05:25:45;;;;;;;13.38;5.40;;;;;;;22.03;51.18;100843.28;4134299;28;20042;-69
2022/07/19 05:27:48;;;;;;;10.77;4.82;;;;;;;22.09;51.15;100837.81;4134238;28;20038;-71
2022/07/19 05:29:53;;;;;;;9.85;5.00;;;;;;;22.15;51.12;100840.28;4116774;28;20397;-70
2022/07/19 05:31:56;;;;;;;9.30;5.22;;;;;;;22.25;51.61;100843.56;4132098;28;20042;-72
2022/07/19 05:33:58;;;;;;;12.98;4.90;;;;;;;22.34;51.77;100843.34;4132978;28;20074;-71
2022/07/19 05:36:01;;;;;;;14.50;5.07;;;;;;;22.43;51.87;100842.22;4134117;28;20440;-70
2022/07/19 05:38:04;;;;;;;15.48;5.72;;;;;;;22.52;52.08;100841.06;4134229;28;20073;-70
2022/07/19 05:40:11;;;;;;;11.65;4.88;;;;;;;22.60;52.19;100839.91;4134402;28;20432;-70
2022/07/19 05:42:14;;;;;;;16.95;5.00;;;;;;;22.64;52.31;100838.06;4133271;28;20046;-70
2022/07/19 05:44:17;;;;;;;20.00;6.65;;;;;;;22.69;51.99;100832.59;4132656;28;20101;-69
2022/07/19 05:46:22;;;;;;;12.68;5.35;;;;;;;22.81;51.47;100840.19;4133926;28;20052;-70
2022/07/19 05:48:25;;;;;;;9.05;4.78;;;;;;;22.87;52.54;100840.00;4132764;28;20053;-69
2022/07/19 05:50:28;;;;;;;18.40;4.78;;;;;;;22.92;52.80;100840.72;4133765;28;20042;-70
2022/07/19 05:52:31;;;;;;;14.32;5.53;;;;;;;22.96;53.21;100842.34;4132925;28;20122;-70
2022/07/19 05:54:39;;;;;;;14.48;5.38;;;;;;;23.05;49.98;100841.19;4133688;28;20611;-70
2022/07/19 05:56:42;;;;;;;14.07;4.47;;;;;;;23.16;49.67;100835.59;4133803;28;20042;-70
2022/07/19 05:58:45;;;;;;;13.15;5.32;;;;;;;23.26;50.68;100842.34;4133928;28;20518;-70
2022/07/19 06:03:06;;;;;;;16.65;4.85;;;;;;;23.43;47.95;100838.25;4130907;28;20054;-69
2022/07/19 06:05:09;;;;;;;12.23;5.15;;;;;;;23.51;46.99;100841.53;4132502;28;20042;-70
2022/07/19 06:07:12;;;;;;;10.38;4.68;;;;;;;23.60;47.30;100843.88;4133629;28;20042;-70
2022/07/19 06:09:15;;;;;;;16.23;5.07;;;;;;;23.65;46.85;100844.56;4133537;28;20472;-70
2022/07/19 06:11:19;;;;;;;12.13;4.55;;;;;;;23.70;47.97;100845.28;4133536;28;20114;-70
2022/07/19 06:13:22;;;;;;;12.82;4.40;;;;;;;23.76;48.77;100840.66;4131413;28;20407;-70
2022/07/19 06:15:25;;;;;;;14.50;5.30;;;;;;;23.81;48.30;100841.41;4116135;28;20046;-70
2022/07/19 06:17:29;;;;;;;9.48;4.38;;;;;;;23.86;46.53;100847.47;4133504;28;20052;-70
2022/07/19 06:19:34;;;;;;;14.48;4.90;;;;;;;23.90;46.23;100851.72;4133602;28;20146;-70
2022/07/19 06:21:36;;;;;;;13.23;4.55;;;;;;;23.97;46.24;100847.91;4133112;28;20042;-70
2022/07/19 06:23:41;;;;;;;9.73;4.18;;;;;;;24.04;45.70;100841.47;4133482;28;20320;-70
2022/07/19 06:25:45;;;;;;;12.60;4.80;;;;;;;24.15;45.37;100848.19;4133395;28;20038;-70
2022/07/19 06:27:48;;;;;;;15.07;5.35;;;;;;;24.20;45.12;100841.78;4133378;28;20129;-70
2022/07/19 06:29:51;;;;;;;14.85;4.95;;;;;;;24.28;45.36;100845.94;4133199;28;20511;-68
2022/07/19 06:31:53;;;;;;;11.88;4.90;;;;;;;24.32;45.35;100843.13;4131896;28;20052;-69
2022/07/19 06:33:56;;;;;;;11.00;4.75;;;;;;;24.38;44.85;100842.88;4133315;28;20412;-69
2022/07/19 06:36:01;;;;;;;13.68;6.20;;;;;;;24.52;43.48;100846.84;4133230;28;20048;-68
2022/07/19 06:38:03;;;;;;;10.75;4.78;;;;;;;24.56;43.26;100843.13;4133213;28;20035;-69
2022/07/19 06:40:07;;;;;;;13.23;5.85;;;;;;;24.68;43.63;100844.50;4115850;28;20122;-69
2022/07/19 06:42:10;;;;;;;13.05;4.85;;;;;;;24.66;44.13;100844.56;4132385;28;20038;-69
2022/07/19 06:44:13;;;;;;;13.80;5.70;;;;;;;24.67;43.52;100854.25;4133033;28;20428;-69
2022/07/19 06:46:16;;;;;;;14.05;4.70;;;;;;;24.74;43.45;100845.09;4133040;28;20038;-69
2022/07/19 06:48:19;;;;;;;12.18;4.35;;;;;;;24.76;43.42;100847.72;4133001;28;20045;-69
2022/07/19 06:50:22;;;;;;;10.80;3.90;;;;;;;24.88;44.01;100849.00;4132914;28;20053;-69
2022/07/19 06:52:45;;;;;;;11.68;4.50;;;;;;;24.92;43.82;100845.31;4130815;28;20048;-68
2022/07/19 06:54:48;;;;;;;;;;;;;;;24.85;44.09;100850.03;4132161;28;20050;-69
2022/07/19 06:56:51;;;;;;;14.05;5.60;;;;;;;24.95;43.48;100853.16;4131820;28;19921;-69
2022/07/19 06:58:54;;;;;;;20.58;6.00;;;;;;;25.02;43.00;100853.81;4132862;28;20400;-68
2022/07/19 07:00:58;;;;;;;13.63;5.88;;;;;;;25.04;42.07;100855.50;4132727;28;20050;-69
2022/07/19 07:03:01;;;;;;;16.25;6.53;;;;;;;25.09;42.13;100860.63;4131971;28;20042;-69
2022/07/19 07:05:05;;;;;;;15.98;6.40;;;;;;;25.19;41.66;100861.09;4131235;28;20050;-69
2022/07/19 07:07:08;;;;;;;13.57;5.82;;;;;;;25.23;41.69;100862.69;4132760;28;20042;-69
2022/07/19 07:09:12;;;;;;;14.35;6.13;;;;;;;25.24;41.14;100859.97;4132680;28;20403;-69
2022/07/19 07:11:15;;;;;;;;;;;;;;;25.23;41.39;100863.59;4132987;28;20042;-69
2022/07/19 07:13:18;;;;;;;16.38;6.03;;;;;;;25.31;41.36;100860.63;4130549;28;19922;-69
2022/07/19 07:15:21;;;;;;;12.20;5.68;;;;;;;25.38;41.04;100867.44;4132440;28;20070;-69
2022/07/19 07:17:24;;;;;;;15.80;4.68;;;;;;;25.49;41.06;100866.13;4132416;28;20050;-69
2022/07/19 07:19:26;;;;;;;14.18;5.43;;;;;;;25.55;40.47;100864.09;4131195;28;20065;-69
2022/07/19 07:21:33;;;;;;;13.00;5.45;;;;;;;25.64;40.16;100865.47;4115111;28;20412;-69
2022/07/19 07:23:36;;;;;;;14.35;5.95;;;;;;;25.74;40.18;100861.53;4131887;28;20092;-69
2022/07/19 07:25:40;;;;;;;19.08;6.18;;;;;;;25.74;39.69;100856.19;4132424;28;20069;-69
2022/07/19 07:27:43;;;;;;;14.70;5.65;;;;;;;25.79;39.48;100859.50;4132390;28;20504;-70
2022/07/19 07:29:46;;;;;;;14.85;5.50;;;;;;;25.90;39.45;100860.84;4132175;28;20049;-70
2022/07/19 07:31:51;;;;;;;19.05;4.93;;;;;;;25.96;39.47;100853.47;4114274;28;20051;-69
2022/07/19 07:33:53;;;;;;;9.80;5.20;;;;;;;26.01;38.90;100855.09;4132197;28;20042;-70
2022/07/19 07:35:56;;;;;;;10.73;4.72;;;;;;;26.06;38.67;100848.59;4132251;28;20133;-70
2022/07/19 07:37:59;;;;;;;13.30;4.35;;;;;;;26.13;37.93;100852.72;4132062;28;20077;-70
2022/07/19 07:40:03;;;;;;;13.13;4.78;;;;;;;26.19;37.55;100853.41;4132400;28;20050;-70
2022/07/19 07:42:08;;;;;;;12.02;4.90;;;;;;;26.24;37.23;100851.38;4131384;28;20042;-70
2022/07/19 07:44:15;;;;;;;9.48;3.92;;;;;;;26.32;37.27;100851.91;4131143;28;20460;-69
2022/07/19 07:46:17;;;;;;;10.50;4.50;;;;;;;26.35;37.00;100849.09;4132117;28;20045;-69
2022/07/19 07:48:20;;;;;;;16.05;4.65;;;;;;;26.54;35.76;100838.44;4132131;28;20076;-70
2022/07/19 07:50:24;;;;;;;12.68;4.32;;;;;;;26.60;35.22;100847.97;4131914;28;20049;-70
2022/07/19 07:52:27;;;;;;;12.15;4.60;;;;;;;26.64;35.90;100854.88;4130133;28;20412;-70
2022/07/19 07:54:30;;;;;;;11.40;3.90;;;;;;;26.70;35.56;100846.63;4131969;28;20046;-70
2022/07/19 07:56:33;;;;;;;8.25;4.10;;;;;;;26.78;34.80;100847.13;4132041;28;20412;-70
2022/07/19 07:58:38;;;;;;;12.63;4.57;;;;;;;26.88;34.67;100852.03;4130830;28;20579;-70
2022/07/19 08:00:41;;;;;;;11.75;4.75;;;;;;;27.07;34.31;100855.56;4131979;28;20034;-70
2022/07/19 08:02:46;;;;;;;15.88;4.43;;;;;;;27.07;34.79;100852.00;4131089;28;20042;-70
2022/07/19 08:04:48;;;;;;;;;;;;;;;27.01;35.12;100847.81;4131047;28;20042;-70
2022/07/19 08:06:52;;;;;;;10.43;3.88;;;;;;;27.03;35.05;100851.31;4131798;28;20451;-71
2022/07/19 08:08:54;;;;;;;11.00;4.93;;;;;;;27.11;34.92;100841.09;4131693;28;20038;-70
2022/07/19 08:10:58;;;;;;;10.45;4.13;;;;;;;27.18;34.77;100841.66;4131624;28;20544;-71
2022/07/19 08:13:00;;;;;;;12.10;4.68;;;;;;;27.26;35.00;100836.81;4130672;28;20067;-70
2022/07/19 08:15:11;;;;;;;15.20;4.75;;;;;;;27.27;34.76;100837.69;4131740;28;20057;-71
2022/07/19 08:17:14;;;;;;;13.52;4.72;;;;;;;27.34;34.27;100833.78;4131700;28;20125;-71
2022/07/19 08:19:17;;;;;;;12.50;4.80;;;;;;;27.48;33.90;100831.31;4130469;28;20073;-70
2022/07/19 08:21:20;;;;;;;10.73;3.88;;;;;;;27.63;34.06;100832.31;4131597;28;20034;-70
2022/07/19 08:23:23;;;;;;;18.15;5.10;;;;;;;27.74;33.91;100825.56;4130868;28;20385;-71
2022/07/19 08:25:26;;;;;;;13.02;5.47;;;;;;;27.81;34.03;100825.16;4130401;28;20057;-70
2022/07/19 08:27:29;;;;;;;14.88;5.22;;;;;;;28.00;33.17;100821.53;4131585;28;20050;-69
2022/07/19 08:29:32;;;;;;;13.60;5.22;;;;;;;28.00;33.45;100818.88;4131570;28;20093;-69
2022/07/19 08:31:36;;;;;;;9.82;4.03;;;;;;;28.00;33.57;100816.19;4131223;28;20068;-70
2022/07/19 08:33:41;;;;;;;11.27;4.63;;;;;;;27.96;34.15;100814.59;4130199;28;20074;-70
2022/07/19 08:35:43;;;;;;;12.25;4.65;;;;;;;27.92;34.02;100807.69;4131500;28;20137;-70
2022/07/19 08:37:46;;;;;;;10.38;5.15;;;;;;;27.94;33.84;100808.47;4131475;28;20073;-70
2022/07/19 08:39:49;;;;;;;10.18;4.55;;;;;;;28.01;33.83;100807.25;4130285;28;20138;-70
2022/07/19 08:41:52;;;;;;;8.63;4.35;;;;;;;28.13;34.17;100811.91;4129479;28;20471;-70
2022/07/19 08:43:56;;;;;;;11.32;4.53;;;;;;;28.23;33.81;100811.41;4131395;28;20043;-70
2022/07/19 08:46:00;;;;;;;14.77;4.55;;;;;;;28.35;33.64;100810.75;4131417;28;20125;-70
2022/07/19 08:48:07;;;;;;;12.90;4.55;;;;;;;28.45;33.47;100800.44;4131450;28;20133;-69
2022/07/19 08:50:12;;;;;;;10.82;4.20;;;;;;;28.54;33.42;100806.09;4114175;28;20061;-71
2022/07/19 08:52:15;;;;;;;15.10;5.78;;;;;;;28.71;32.66;100801.69;4129364;28;20042;-71
2022/07/19 08:54:19;;;;;;;9.38;4.25;;;;;;;28.87;32.65;100804.34;4131648;28;20100;-71
2022/07/19 08:58:54;;;;;;;10.93;4.75;;;;;;;29.16;32.25;100796.41;4084705;29;20133;-70
2022/07/19 09:00:56;;;;;;;13.25;4.30;;;;;;;29.19;31.54;100801.59;4118175;28;20133;-70
2022/07/19 09:03:01;;;;;;;12.10;4.45;;;;;;;29.30;30.83;100801.00;4133867;28;20052;-71
2022/07/19 09:05:10;;;;;;;9.85;3.38;;;;;;;29.37;30.48;100799.69;4134625;28;20455;-71
2022/07/19 09:07:19;;;;;;;7.63;3.80;;;;;;;29.52;30.79;100796.06;4134582;28;20505;-70
2022/07/19 09:09:25;;;;;;;13.75;3.72;;;;;;;29.83;29.45;100802.28;4134583;28;20519;-71
2022/07/19 09:11:33;;;;;;;11.85;2.97;;;;;;;29.81;29.41;100793.44;4134386;28;20121;-71
2022/07/19 09:13:39;;;;;;;19.35;3.85;;;;;;;29.88;29.57;100792.16;4134190;28;20078;-70
2022/07/19 09:15:45;;;;;;;6.47;3.15;;;;;;;30.02;28.74;100795.78;4134442;28;20038;-71
2022/07/19 09:17:48;;;;;;;8.18;3.53;;;;;;;30.07;28.71;100793.69;4134354;28;20568;-70
2022/07/19 09:19:52;;;;;;;8.75;3.20;;;;;;;30.13;28.52;100787.94;4133235;28;20058;-70
2022/07/19 09:22:00;;;;;;;7.28;3.00;;;;;;;30.17;28.42;100794.84;4132409;28;20034;-71
2022/07/19 09:24:04;;;;;;;10.88;3.75;;;;;;;30.32;28.49;100787.66;4134257;28;20395;-72
2022/07/19 09:26:07;;;;;;;8.32;2.45;;;;;;;30.31;28.21;100779.69;4134198;28;20411;-71
2022/07/19 09:28:10;;;;;;;4.03;2.30;;;;;;;30.39;28.94;100782.75;4134288;28;20050;-70
2022/07/19 09:30:16;;;;;;;7.85;2.72;;;;;;;30.62;27.41;100781.28;4134282;28;20523;-71
2022/07/19 09:32:21;;;;;;;4.93;2.22;;;;;;;30.63;28.12;100778.50;4133467;28;20038;-70
2022/07/19 09:34:28;;;;;;;6.88;2.60;;;;;;;30.72;28.23;100778.88;4134137;28;20492;-71
2022/07/19 09:36:30;;;;;;;4.35;2.03;;;;;;;30.86;27.49;100777.97;4134324;28;20411;-71